< < Back
Terminal Aerodrome Forecast


Current Version              Previous Versions:   1  2  3  4  5  6  7  8  9  

Terminal Aerodrome Forecast

239
FTUS44 KOHX 311700
TAFCSV
TAF
KCSV 311722Z 3118/0118 31009KT P6SM VCSH OVC025
     FM010200 31014G24KT 5SM -SHSN BR OVC007
      TEMPO 0105/0109 3SM -SHSN BR
     FM011200 34013G23KT P6SM OVC009
      TEMPO 0112/0116 5SM -SHSN BR
     FM011600 34016KT P6SM BKN025=



Latest METAR

701
SAUS70 KWBC 312000 RRF
MTRCSV
METAR KCSV 311953Z AUTO 29008KT 7SM SCT009 OVC014 08/05 A2992 RMK AO2
SLP133 T00830050


USA.gov is the U.S. government's official web portal to all federal, state and local government web resources and services.